sensor_id;sensor_type;location;lat;lon;timestamp;P1;durP1;ratioP1;P2;durP2;ratioP2
20988;SDS011;10653;47.052;15.410;2023-05-10T00:00:08;17.23;;;11.40;;
20988;SDS011;10653;47.052;15.410;2023-05-10T00:02:34;11.60;;;9.90;;
20988;SDS011;10653;47.052;15.410;2023-05-10T00:05:01;10.90;;;8.30;;
20988;SDS011;10653;47.052;15.410;2023-05-10T00:07:27;8.47;;;6.17;;
20988;SDS011;10653;47.052;15.410;2023-05-10T00:09:53;7.13;;;4.40;;
20988;SDS011;10653;47.052;15.410;2023-05-10T00:12:19;5.97;;;4.77;;
20988;SDS011;10653;47.052;15.410;2023-05-10T00:14:45;5.73;;;5.07;;
20988;SDS011;10653;47.052;15.410;2023-05-10T00:17:11;6.70;;;5.10;;
20988;SDS011;10653;47.052;15.410;2023-05-10T00:19:37;7.63;;;6.37;;
20988;SDS011;10653;47.052;15.410;2023-05-10T00:22:03;6.20;;;5.37;;
20988;SDS011;10653;47.052;15.410;2023-05-10T00:24:29;7.70;;;5.37;;
20988;SDS011;10653;47.052;15.410;2023-05-10T00:26:55;6.77;;;5.07;;
20988;SDS011;10653;47.052;15.410;2023-05-10T00:29:21;7.90;;;5.00;;
20988;SDS011;10653;47.052;15.410;2023-05-10T00:31:47;5.57;;;5.00;;
20988;SDS011;10653;47.052;15.410;2023-05-10T00:34:13;5.10;;;4.57;;
20988;SDS011;10653;47.052;15.410;2023-05-10T00:36:39;6.00;;;5.40;;
20988;SDS011;10653;47.052;15.410;2023-05-10T00:39:05;6.30;;;5.10;;
20988;SDS011;10653;47.052;15.410;2023-05-10T00:41:31;5.13;;;4.63;;
20988;SDS011;10653;47.052;15.410;2023-05-10T00:43:57;6.27;;;5.67;;
20988;SDS011;10653;47.052;15.410;2023-05-10T00:46:23;6.20;;;5.20;;
20988;SDS011;10653;47.052;15.410;2023-05-10T00:48:50;7.80;;;6.40;;
20988;SDS011;10653;47.052;15.410;2023-05-10T00:51:16;5.10;;;4.60;;
20988;SDS011;10653;47.052;15.410;2023-05-10T00:53:43;5.67;;;4.87;;
20988;SDS011;10653;47.052;15.410;2023-05-10T00:56:09;5.43;;;4.90;;
20988;SDS011;10653;47.052;15.410;2023-05-10T00:58:35;7.70;;;5.97;;
20988;SDS011;10653;47.052;15.410;2023-05-10T01:01:02;5.80;;;5.20;;
20988;SDS011;10653;47.052;15.410;2023-05-10T01:03:28;5.97;;;5.03;;
20988;SDS011;10653;47.052;15.410;2023-05-10T01:05:54;5.90;;;5.40;;
20988;SDS011;10653;47.052;15.410;2023-05-10T01:08:20;9.90;;;5.97;;
20988;SDS011;10653;47.052;15.410;2023-05-10T01:10:47;5.47;;;5.07;;
20988;SDS011;10653;47.052;15.410;2023-05-10T01:13:15;6.40;;;5.77;;
20988;SDS011;10653;47.052;15.410;2023-05-10T01:15:44;6.77;;;6.03;;
20988;SDS011;10653;47.052;15.410;2023-05-10T01:18:11;6.47;;;5.03;;
20988;SDS011;10653;47.052;15.410;2023-05-10T01:20:39;6.43;;;5.83;;
20988;SDS011;10653;47.052;15.410;2023-05-10T01:23:13;7.27;;;5.23;;
20988;SDS011;10653;47.052;15.410;2023-05-10T01:25:58;6.50;;;5.43;;
20988;SDS011;10653;47.052;15.410;2023-05-10T01:33:41;12.67;;;8.33;;
20988;SDS011;10653;47.052;15.410;2023-05-10T01:38:42;6.87;;;6.00;;
20988;SDS011;10653;47.052;15.410;2023-05-10T01:41:18;7.20;;;5.80;;
20988;SDS011;10653;47.052;15.410;2023-05-10T01:44:02;6.83;;;5.53;;
20988;SDS011;10653;47.052;15.410;2023-05-10T01:46:35;7.37;;;5.93;;
20988;SDS011;10653;47.052;15.410;2023-05-10T01:49:08;7.40;;;6.00;;
20988;SDS011;10653;47.052;15.410;2023-05-10T01:51:41;8.03;;;5.40;;
20988;SDS011;10653;47.052;15.410;2023-05-10T01:54:11;6.50;;;5.80;;
20988;SDS011;10653;47.052;15.410;2023-05-10T01:56:38;5.43;;;4.93;;
20988;SDS011;10653;47.052;15.410;2023-05-10T01:59:07;7.13;;;5.23;;
20988;SDS011;10653;47.052;15.410;2023-05-10T02:01:34;5.53;;;5.03;;
20988;SDS011;10653;47.052;15.410;2023-05-10T02:04:03;5.27;;;4.77;;
20988;SDS011;10653;47.052;15.410;2023-05-10T02:06:30;6.30;;;5.50;;
20988;SDS011;10653;47.052;15.410;2023-05-10T02:08:57;5.73;;;4.83;;
20988;SDS011;10653;47.052;15.410;2023-05-10T02:11:23;7.30;;;5.03;;
20988;SDS011;10653;47.052;15.410;2023-05-10T02:13:51;6.00;;;4.90;;
20988;SDS011;10653;47.052;15.410;2023-05-10T02:16:17;7.53;;;5.93;;
20988;SDS011;10653;47.052;15.410;2023-05-10T02:18:44;6.13;;;5.27;;
20988;SDS011;10653;47.052;15.410;2023-05-10T02:21:11;6.13;;;5.53;;
20988;SDS011;10653;47.052;15.410;2023-05-10T02:23:37;6.77;;;5.90;;
20988;SDS011;10653;47.052;15.410;2023-05-10T02:26:04;6.27;;;5.20;;
20988;SDS011;10653;47.052;15.410;2023-05-10T02:28:31;5.70;;;5.10;;
20988;SDS011;10653;47.052;15.410;2023-05-10T02:30:57;5.33;;;4.83;;
20988;SDS011;10653;47.052;15.410;2023-05-10T02:33:23;6.63;;;5.53;;
20988;SDS011;10653;47.052;15.410;2023-05-10T02:35:50;5.30;;;4.80;;
20988;SDS011;10653;47.052;15.410;2023-05-10T02:38:16;6.50;;;5.77;;
20988;SDS011;10653;47.052;15.410;2023-05-10T02:40:44;6.57;;;5.33;;
20988;SDS011;10653;47.052;15.410;2023-05-10T02:43:12;6.67;;;6.17;;
20988;SDS011;10653;47.052;15.410;2023-05-10T02:45:39;5.87;;;5.37;;
20988;SDS011;10653;47.052;15.410;2023-05-10T02:48:05;6.50;;;5.30;;
20988;SDS011;10653;47.052;15.410;2023-05-10T02:50:32;6.40;;;5.70;;
20988;SDS011;10653;47.052;15.410;2023-05-10T02:53:00;6.20;;;5.60;;
20988;SDS011;10653;47.052;15.410;2023-05-10T02:55:32;6.47;;;5.07;;
20988;SDS011;10653;47.052;15.410;2023-05-10T02:58:01;6.30;;;5.70;;
20988;SDS011;10653;47.052;15.410;2023-05-10T03:00:27;6.47;;;5.40;;
20988;SDS011;10653;47.052;15.410;2023-05-10T03:02:54;5.97;;;5.30;;
20988;SDS011;10653;47.052;15.410;2023-05-10T03:05:20;6.50;;;5.80;;
20988;SDS011;10653;47.052;15.410;2023-05-10T03:07:46;5.73;;;5.23;;
20988;SDS011;10653;47.052;15.410;2023-05-10T03:10:13;5.93;;;5.33;;
20988;SDS011;10653;47.052;15.410;2023-05-10T03:20:29;5.40;;;4.90;;
20988;SDS011;10653;47.052;15.410;2023-05-10T03:23:00;7.10;;;5.50;;
20988;SDS011;10653;47.052;15.410;2023-05-10T03:25:27;6.40;;;5.63;;
20988;SDS011;10653;47.052;15.410;2023-05-10T03:27:55;7.13;;;6.43;;
20988;SDS011;10653;47.052;15.410;2023-05-10T03:30:22;8.03;;;5.87;;
20988;SDS011;10653;47.052;15.410;2023-05-10T03:32:48;7.20;;;6.50;;
20988;SDS011;10653;47.052;15.410;2023-05-10T03:35:14;12.70;;;8.10;;
20988;SDS011;10653;47.052;15.410;2023-05-10T03:37:40;6.77;;;6.17;;
20988;SDS011;10653;47.052;15.410;2023-05-10T03:40:06;6.90;;;6.20;;
20988;SDS011;10653;47.052;15.410;2023-05-10T03:42:32;6.90;;;5.90;;
20988;SDS011;10653;47.052;15.410;2023-05-10T03:44:58;6.30;;;5.67;;
20988;SDS011;10653;47.052;15.410;2023-05-10T03:47:24;11.20;;;6.60;;
20988;SDS011;10653;47.052;15.410;2023-05-10T03:49:50;7.10;;;6.40;;
20988;SDS011;10653;47.052;15.410;2023-05-10T03:52:16;7.47;;;6.27;;
20988;SDS011;10653;47.052;15.410;2023-05-10T03:54:43;7.53;;;6.73;;
20988;SDS011;10653;47.052;15.410;2023-05-10T03:57:09;11.60;;;7.37;;
20988;SDS011;10653;47.052;15.410;2023-05-10T03:59:35;8.97;;;7.30;;
20988;SDS011;10653;47.052;15.410;2023-05-10T04:02:01;9.97;;;8.57;;
20988;SDS011;10653;47.052;15.410;2023-05-10T04:04:27;9.17;;;7.10;;
20988;SDS011;10653;47.052;15.410;2023-05-10T04:06:53;7.13;;;6.40;;
20988;SDS011;10653;47.052;15.410;2023-05-10T04:09:19;6.60;;;5.93;;
20988;SDS011;10653;47.052;15.410;2023-05-10T04:11:45;7.00;;;5.93;;
20988;SDS011;10653;47.052;15.410;2023-05-10T04:14:11;7.67;;;6.90;;
20988;SDS011;10653;47.052;15.410;2023-05-10T04:16:37;7.43;;;6.63;;
20988;SDS011;10653;47.052;15.410;2023-05-10T04:19:03;7.20;;;6.50;;
20988;SDS011;10653;47.052;15.410;2023-05-10T04:21:29;8.97;;;7.33;;
20988;SDS011;10653;47.052;15.410;2023-05-10T04:23:55;7.33;;;6.63;;
20988;SDS011;10653;47.052;15.410;2023-05-10T04:26:21;9.77;;;7.20;;
20988;SDS011;10653;47.052;15.410;2023-05-10T04:28:47;15.43;;;8.47;;
20988;SDS011;10653;47.052;15.410;2023-05-10T04:31:14;11.40;;;7.80;;
20988;SDS011;10653;47.052;15.410;2023-05-10T04:33:40;8.60;;;7.70;;
20988;SDS011;10653;47.052;15.410;2023-05-10T04:36:06;9.27;;;8.07;;
20988;SDS011;10653;47.052;15.410;2023-05-10T04:38:32;7.80;;;7.00;;
20988;SDS011;10653;47.052;15.410;2023-05-10T04:41:04;9.30;;;7.30;;
20988;SDS011;10653;47.052;15.410;2023-05-10T04:43:31;7.10;;;6.40;;
20988;SDS011;10653;47.052;15.410;2023-05-10T04:45:57;7.80;;;7.00;;
20988;SDS011;10653;47.052;15.410;2023-05-10T04:48:23;8.53;;;6.80;;
20988;SDS011;10653;47.052;15.410;2023-05-10T04:50:49;7.80;;;6.70;;
20988;SDS011;10653;47.052;15.410;2023-05-10T04:53:15;9.17;;;6.00;;
20988;SDS011;10653;47.052;15.410;2023-05-10T04:55:41;8.00;;;7.20;;
20988;SDS011;10653;47.052;15.410;2023-05-10T04:58:07;7.47;;;6.27;;
20988;SDS011;10653;47.052;15.410;2023-05-10T05:00:33;7.23;;;6.50;;
20988;SDS011;10653;47.052;15.410;2023-05-10T05:03:00;8.57;;;6.60;;
20988;SDS011;10653;47.052;15.410;2023-05-10T05:05:26;8.70;;;6.63;;
20988;SDS011;10653;47.052;15.410;2023-05-10T05:07:52;10.60;;;6.30;;
20988;SDS011;10653;47.052;15.410;2023-05-10T05:10:18;7.70;;;7.00;;
20988;SDS011;10653;47.052;15.410;2023-05-10T05:12:44;11.67;;;6.77;;
20988;SDS011;10653;47.052;15.410;2023-05-10T05:15:10;7.90;;;6.63;;
20988;SDS011;10653;47.052;15.410;2023-05-10T05:17:36;8.70;;;6.60;;
20988;SDS011;10653;47.052;15.410;2023-05-10T05:20:02;10.60;;;7.40;;
20988;SDS011;10653;47.052;15.410;2023-05-10T05:22:28;7.77;;;6.50;;
20988;SDS011;10653;47.052;15.410;2023-05-10T05:24:55;8.10;;;6.37;;
20988;SDS011;10653;47.052;15.410;2023-05-10T05:27:21;9.30;;;7.57;;
20988;SDS011;10653;47.052;15.410;2023-05-10T05:29:49;8.90;;;6.67;;
20988;SDS011;10653;47.052;15.410;2023-05-10T05:32:16;8.17;;;6.70;;
20988;SDS011;10653;47.052;15.410;2023-05-10T05:34:44;7.30;;;6.60;;
20988;SDS011;10653;47.052;15.410;2023-05-10T05:37:28;7.63;;;6.67;;
20988;SDS011;10653;47.052;15.410;2023-05-10T05:39:54;8.23;;;7.43;;
20988;SDS011;10653;47.052;15.410;2023-05-10T05:42:20;9.50;;;7.50;;
20988;SDS011;10653;47.052;15.410;2023-05-10T05:44:46;10.27;;;7.63;;
20988;SDS011;10653;47.052;15.410;2023-05-10T05:47:12;9.30;;;7.97;;
20988;SDS011;10653;47.052;15.410;2023-05-10T05:49:38;8.43;;;7.50;;
20988;SDS011;10653;47.052;15.410;2023-05-10T05:52:04;8.83;;;7.37;;
20988;SDS011;10653;47.052;15.410;2023-05-10T05:54:31;10.53;;;7.00;;
20988;SDS011;10653;47.052;15.410;2023-05-10T05:56:57;8.00;;;7.03;;
20988;SDS011;10653;47.052;15.410;2023-05-10T05:59:23;9.87;;;7.47;;
20988;SDS011;10653;47.052;15.410;2023-05-10T06:01:49;9.90;;;6.93;;
20988;SDS011;10653;47.052;15.410;2023-05-10T06:04:16;13.20;;;6.77;;
20988;SDS011;10653;47.052;15.410;2023-05-10T06:06:42;8.10;;;6.60;;
20988;SDS011;10653;47.052;15.410;2023-05-10T06:09:08;7.10;;;6.07;;
20988;SDS011;10653;47.052;15.410;2023-05-10T06:11:34;10.90;;;7.07;;
20988;SDS011;10653;47.052;15.410;2023-05-10T06:14:00;8.53;;;7.57;;
20988;SDS011;10653;47.052;15.410;2023-05-10T06:16:27;8.43;;;6.80;;
20988;SDS011;10653;47.052;15.410;2023-05-10T06:18:53;11.10;;;6.30;;
20988;SDS011;10653;47.052;15.410;2023-05-10T06:21:20;7.90;;;6.87;;
20988;SDS011;10653;47.052;15.410;2023-05-10T06:23:46;11.23;;;6.60;;
20988;SDS011;10653;47.052;15.410;2023-05-10T06:26:12;8.87;;;6.10;;
20988;SDS011;10653;47.052;15.410;2023-05-10T06:28:40;10.00;;;5.97;;
20988;SDS011;10653;47.052;15.410;2023-05-10T06:31:06;7.70;;;6.90;;
20988;SDS011;10653;47.052;15.410;2023-05-10T06:33:32;8.67;;;6.40;;
20988;SDS011;10653;47.052;15.410;2023-05-10T06:35:58;7.60;;;6.70;;
20988;SDS011;10653;47.052;15.410;2023-05-10T06:38:24;7.90;;;6.40;;
20988;SDS011;10653;47.052;15.410;2023-05-10T06:40:51;9.60;;;5.83;;
20988;SDS011;10653;47.052;15.410;2023-05-10T06:43:17;6.33;;;5.73;;
20988;SDS011;10653;47.052;15.410;2023-05-10T06:45:43;8.33;;;6.57;;
20988;SDS011;10653;47.052;15.410;2023-05-10T06:48:09;8.80;;;6.97;;
20988;SDS011;10653;47.052;15.410;2023-05-10T06:50:35;8.00;;;6.57;;
20988;SDS011;10653;47.052;15.410;2023-05-10T06:53:01;8.97;;;6.80;;
20988;SDS011;10653;47.052;15.410;2023-05-10T06:55:27;6.43;;;5.77;;
20988;SDS011;10653;47.052;15.410;2023-05-10T06:57:54;7.30;;;6.60;;
20988;SDS011;10653;47.052;15.410;2023-05-10T07:00:20;7.47;;;5.47;;
20988;SDS011;10653;47.052;15.410;2023-05-10T07:02:46;7.63;;;6.10;;
20988;SDS011;10653;47.052;15.410;2023-05-10T07:05:12;7.60;;;6.57;;
20988;SDS011;10653;47.052;15.410;2023-05-10T07:07:39;7.37;;;6.20;;
20988;SDS011;10653;47.052;15.410;2023-05-10T07:10:05;5.47;;;4.97;;
20988;SDS011;10653;47.052;15.410;2023-05-10T07:12:32;6.63;;;5.90;;
20988;SDS011;10653;47.052;15.410;2023-05-10T07:14:58;7.80;;;5.37;;
20988;SDS011;10653;47.052;15.410;2023-05-10T07:17:24;7.70;;;6.60;;
20988;SDS011;10653;47.052;15.410;2023-05-10T07:19:50;6.17;;;5.30;;
20988;SDS011;10653;47.052;15.410;2023-05-10T07:22:16;7.63;;;6.93;;
20988;SDS011;10653;47.052;15.410;2023-05-10T07:24:42;8.57;;;6.40;;
20988;SDS011;10653;47.052;15.410;2023-05-10T07:27:08;8.43;;;6.73;;
20988;SDS011;10653;47.052;15.410;2023-05-10T07:29:34;11.00;;;6.67;;
20988;SDS011;10653;47.052;15.410;2023-05-10T07:32:01;10.67;;;6.93;;
20988;SDS011;10653;47.052;15.410;2023-05-10T07:34:27;7.80;;;6.60;;
20988;SDS011;10653;47.052;15.410;2023-05-10T07:36:55;10.23;;;7.50;;
20988;SDS011;10653;47.052;15.410;2023-05-10T07:39:20;9.77;;;6.60;;
20988;SDS011;10653;47.052;15.410;2023-05-10T07:41:46;8.90;;;6.80;;
20988;SDS011;10653;47.052;15.410;2023-05-10T07:44:13;8.23;;;6.20;;
20988;SDS011;10653;47.052;15.410;2023-05-10T07:46:39;7.20;;;5.80;;
20988;SDS011;10653;47.052;15.410;2023-05-10T07:49:05;6.90;;;6.17;;
20988;SDS011;10653;47.052;15.410;2023-05-10T07:51:31;6.80;;;5.20;;
20988;SDS011;10653;47.052;15.410;2023-05-10T07:53:57;8.37;;;6.07;;
20988;SDS011;10653;47.052;15.410;2023-05-10T07:56:24;10.07;;;7.10;;
20988;SDS011;10653;47.052;15.410;2023-05-10T07:58:52;7.47;;;6.23;;
20988;SDS011;10653;47.052;15.410;2023-05-10T08:01:18;8.00;;;7.03;;
20988;SDS011;10653;47.052;15.410;2023-05-10T08:03:44;10.30;;;6.33;;
20988;SDS011;10653;47.052;15.410;2023-05-10T08:06:10;10.53;;;6.33;;
20988;SDS011;10653;47.052;15.410;2023-05-10T08:08:37;8.30;;;6.27;;
20988;SDS011;10653;47.052;15.410;2023-05-10T08:11:03;7.63;;;6.83;;
20988;SDS011;10653;47.052;15.410;2023-05-10T08:13:29;8.70;;;6.93;;
20988;SDS011;10653;47.052;15.410;2023-05-10T08:15:56;8.10;;;6.07;;
20988;SDS011;10653;47.052;15.410;2023-05-10T08:18:22;9.40;;;6.77;;
20988;SDS011;10653;47.052;15.410;2023-05-10T08:20:48;7.13;;;6.20;;
20988;SDS011;10653;47.052;15.410;2023-05-10T08:23:14;7.03;;;6.20;;
20988;SDS011;10653;47.052;15.410;2023-05-10T08:25:40;9.43;;;7.23;;
20988;SDS011;10653;47.052;15.410;2023-05-10T08:28:06;8.00;;;6.60;;
20988;SDS011;10653;47.052;15.410;2023-05-10T08:30:32;8.27;;;6.17;;
20988;SDS011;10653;47.052;15.410;2023-05-10T08:32:58;6.50;;;5.90;;
20988;SDS011;10653;47.052;15.410;2023-05-10T08:35:24;7.80;;;5.47;;
20988;SDS011;10653;47.052;15.410;2023-05-10T08:37:50;6.97;;;5.17;;
20988;SDS011;10653;47.052;15.410;2023-05-10T08:40:16;6.20;;;5.20;;
20988;SDS011;10653;47.052;15.410;2023-05-10T08:42:47;6.83;;;5.07;;
20988;SDS011;10653;47.052;15.410;2023-05-10T08:45:16;5.50;;;5.00;;
20988;SDS011;10653;47.052;15.410;2023-05-10T08:47:43;6.53;;;5.63;;
20988;SDS011;10653;47.052;15.410;2023-05-10T08:50:09;8.00;;;5.63;;
20988;SDS011;10653;47.052;15.410;2023-05-10T08:52:36;7.50;;;4.90;;
20988;SDS011;10653;47.052;15.410;2023-05-10T08:55:05;6.07;;;5.07;;
20988;SDS011;10653;47.052;15.410;2023-05-10T08:57:31;7.30;;;5.03;;
20988;SDS011;10653;47.052;15.410;2023-05-10T08:59:57;5.07;;;4.40;;
20988;SDS011;10653;47.052;15.410;2023-05-10T09:02:23;5.30;;;4.47;;
20988;SDS011;10653;47.052;15.410;2023-05-10T09:04:50;5.30;;;4.80;;
20988;SDS011;10653;47.052;15.410;2023-05-10T09:07:16;6.97;;;5.47;;
20988;SDS011;10653;47.052;15.410;2023-05-10T09:09:42;7.40;;;6.23;;
20988;SDS011;10653;47.052;15.410;2023-05-10T09:12:09;5.63;;;4.90;;
20988;SDS011;10653;47.052;15.410;2023-05-10T09:14:36;11.43;;;5.00;;
20988;SDS011;10653;47.052;15.410;2023-05-10T09:17:03;6.23;;;5.20;;
20988;SDS011;10653;47.052;15.410;2023-05-10T09:19:30;7.53;;;5.90;;
20988;SDS011;10653;47.052;15.410;2023-05-10T09:21:56;6.23;;;5.37;;
20988;SDS011;10653;47.052;15.410;2023-05-10T09:24:25;7.53;;;4.70;;
20988;SDS011;10653;47.052;15.410;2023-05-10T09:26:54;7.50;;;5.80;;
20988;SDS011;10653;47.052;15.410;2023-05-10T09:29:22;5.00;;;4.40;;
20988;SDS011;10653;47.052;15.410;2023-05-10T09:31:49;5.60;;;4.97;;
20988;SDS011;10653;47.052;15.410;2023-05-10T09:34:17;6.70;;;4.90;;
20988;SDS011;10653;47.052;15.410;2023-05-10T09:36:53;7.20;;;5.40;;
20988;SDS011;10653;47.052;15.410;2023-05-10T09:39:19;7.50;;;5.80;;
20988;SDS011;10653;47.052;15.410;2023-05-10T09:41:45;7.50;;;5.77;;
20988;SDS011;10653;47.052;15.410;2023-05-10T09:44:16;11.13;;;5.00;;
20988;SDS011;10653;47.052;15.410;2023-05-10T09:46:48;5.40;;;4.83;;
20988;SDS011;10653;47.052;15.410;2023-05-10T09:49:14;6.67;;;5.17;;
20988;SDS011;10653;47.052;15.410;2023-05-10T09:51:40;5.43;;;4.93;;
20988;SDS011;10653;47.052;15.410;2023-05-10T09:54:13;6.17;;;5.27;;
20988;SDS011;10653;47.052;15.410;2023-05-10T09:56:40;5.60;;;5.10;;
20988;SDS011;10653;47.052;15.410;2023-05-10T09:59:07;11.90;;;6.03;;
20988;SDS011;10653;47.052;15.410;2023-05-10T10:01:33;6.80;;;5.70;;
20988;SDS011;10653;47.052;15.410;2023-05-10T10:04:02;13.13;;;6.40;;
20988;SDS011;10653;47.052;15.410;2023-05-10T10:06:29;6.80;;;6.10;;
20988;SDS011;10653;47.052;15.410;2023-05-10T10:08:55;6.60;;;5.70;;
20988;SDS011;10653;47.052;15.410;2023-05-10T10:11:21;5.50;;;5.00;;
20988;SDS011;10653;47.052;15.410;2023-05-10T10:13:47;6.80;;;5.87;;
20988;SDS011;10653;47.052;15.410;2023-05-10T10:16:13;9.60;;;5.07;;
20988;SDS011;10653;47.052;15.410;2023-05-10T10:18:39;7.57;;;5.40;;
20988;SDS011;10653;47.052;15.410;2023-05-10T10:21:06;6.23;;;4.97;;
20988;SDS011;10653;47.052;15.410;2023-05-10T10:23:36;6.13;;;5.30;;
20988;SDS011;10653;47.052;15.410;2023-05-10T10:26:02;7.30;;;5.20;;
20988;SDS011;10653;47.052;15.410;2023-05-10T10:30:59;10.77;;;7.83;;
20988;SDS011;10653;47.052;15.410;2023-05-10T10:36:11;5.40;;;4.80;;
20988;SDS011;10653;47.052;15.410;2023-05-10T10:41:29;6.83;;;6.23;;
20988;SDS011;10653;47.052;15.410;2023-05-10T10:46:58;9.63;;;6.03;;
20988;SDS011;10653;47.052;15.410;2023-05-10T10:49:25;7.23;;;6.53;;
20988;SDS011;10653;47.052;15.410;2023-05-10T10:54:36;5.90;;;5.40;;
20988;SDS011;10653;47.052;15.410;2023-05-10T10:57:11;6.37;;;5.23;;
20988;SDS011;10653;47.052;15.410;2023-05-10T10:59:44;6.20;;;5.30;;
20988;SDS011;10653;47.052;15.410;2023-05-10T11:04:56;6.47;;;5.97;;
20988;SDS011;10653;47.052;15.410;2023-05-10T11:07:22;7.30;;;6.30;;
20988;SDS011;10653;47.052;15.410;2023-05-10T11:09:48;6.40;;;5.80;;
20988;SDS011;10653;47.052;15.410;2023-05-10T11:12:14;6.27;;;5.67;;
20988;SDS011;10653;47.052;15.410;2023-05-10T11:14:40;9.90;;;6.80;;
20988;SDS011;10653;47.052;15.410;2023-05-10T11:17:25;6.77;;;6.07;;
20988;SDS011;10653;47.052;15.410;2023-05-10T11:20:09;6.57;;;5.90;;
20988;SDS011;10653;47.052;15.410;2023-05-10T11:22:50;5.93;;;5.17;;
20988;SDS011;10653;47.052;15.410;2023-05-10T11:25:17;5.50;;;5.00;;
20988;SDS011;10653;47.052;15.410;2023-05-10T11:27:43;6.50;;;5.80;;
20988;SDS011;10653;47.052;15.410;2023-05-10T11:30:10;7.00;;;6.30;;
20988;SDS011;10653;47.052;15.410;2023-05-10T11:32:39;6.33;;;5.73;;
20988;SDS011;10653;47.052;15.410;2023-05-10T11:35:08;9.60;;;6.20;;
20988;SDS011;10653;47.052;15.410;2023-05-10T11:37:35;6.10;;;5.60;;
20988;SDS011;10653;47.052;15.410;2023-05-10T11:40:01;9.40;;;6.47;;
20988;SDS011;10653;47.052;15.410;2023-05-10T11:42:28;6.63;;;6.03;;
20988;SDS011;10653;47.052;15.410;2023-05-10T11:44:54;10.83;;;5.87;;
20988;SDS011;10653;47.052;15.410;2023-05-10T11:47:20;9.17;;;6.70;;
20988;SDS011;10653;47.052;15.410;2023-05-10T11:49:46;6.33;;;5.83;;
20988;SDS011;10653;47.052;15.410;2023-05-10T11:52:12;6.50;;;5.10;;
20988;SDS011;10653;47.052;15.410;2023-05-10T11:54:45;6.77;;;6.07;;
20988;SDS011;10653;47.052;15.410;2023-05-10T11:57:17;7.00;;;5.83;;
20988;SDS011;10653;47.052;15.410;2023-05-10T11:59:43;6.73;;;5.60;;
20988;SDS011;10653;47.052;15.410;2023-05-10T12:02:10;6.60;;;5.97;;
20988;SDS011;10653;47.052;15.410;2023-05-10T12:04:37;6.50;;;5.50;;
20988;SDS011;10653;47.052;15.410;2023-05-10T12:07:03;7.00;;;5.53;;
20988;SDS011;10653;47.052;15.410;2023-05-10T12:09:29;9.10;;;6.23;;
20988;SDS011;10653;47.052;15.410;2023-05-10T12:11:55;6.10;;;5.50;;
20988;SDS011;10653;47.052;15.410;2023-05-10T12:14:24;5.10;;;4.60;;
20988;SDS011;10653;47.052;15.410;2023-05-10T12:16:50;5.37;;;4.87;;
20988;SDS011;10653;47.052;15.410;2023-05-10T12:19:19;6.33;;;5.43;;
20988;SDS011;10653;47.052;15.410;2023-05-10T12:21:46;8.13;;;5.57;;
20988;SDS011;10653;47.052;15.410;2023-05-10T12:24:12;5.07;;;4.60;;
20988;SDS011;10653;47.052;15.410;2023-05-10T12:26:41;5.33;;;4.83;;
20988;SDS011;10653;47.052;15.410;2023-05-10T12:29:17;5.80;;;4.87;;
20988;SDS011;10653;47.052;15.410;2023-05-10T12:31:56;5.83;;;5.23;;
20988;SDS011;10653;47.052;15.410;2023-05-10T12:34:26;5.60;;;5.10;;
20988;SDS011;10653;47.052;15.410;2023-05-10T12:36:52;6.47;;;5.20;;
20988;SDS011;10653;47.052;15.410;2023-05-10T12:39:18;6.93;;;4.90;;
20988;SDS011;10653;47.052;15.410;2023-05-10T12:41:44;10.80;;;7.70;;
20988;SDS011;10653;47.052;15.410;2023-05-10T12:44:10;6.13;;;5.10;;
20988;SDS011;10653;47.052;15.410;2023-05-10T12:46:36;8.53;;;4.57;;
20988;SDS011;10653;47.052;15.410;2023-05-10T12:49:02;6.37;;;5.30;;
20988;SDS011;10653;47.052;15.410;2023-05-10T12:51:28;6.70;;;5.57;;
20988;SDS011;10653;47.052;15.410;2023-05-10T12:53:55;5.33;;;4.83;;
20988;SDS011;10653;47.052;15.410;2023-05-10T12:56:21;5.33;;;4.93;;
20988;SDS011;10653;47.052;15.410;2023-05-10T12:58:47;6.20;;;4.90;;
20988;SDS011;10653;47.052;15.410;2023-05-10T13:01:14;5.27;;;4.73;;
20988;SDS011;10653;47.052;15.410;2023-05-10T13:03:40;7.13;;;5.17;;
20988;SDS011;10653;47.052;15.410;2023-05-10T13:06:06;5.07;;;4.57;;
20988;SDS011;10653;47.052;15.410;2023-05-10T13:08:32;5.40;;;4.93;;
20988;SDS011;10653;47.052;15.410;2023-05-10T13:11:01;6.10;;;5.33;;
20988;SDS011;10653;47.052;15.410;2023-05-10T13:13:28;6.13;;;5.40;;
20988;SDS011;10653;47.052;15.410;2023-05-10T13:15:54;5.10;;;4.70;;
20988;SDS011;10653;47.052;15.410;2023-05-10T13:18:20;5.60;;;5.20;;
20988;SDS011;10653;47.052;15.410;2023-05-10T13:20:46;7.13;;;4.80;;
20988;SDS011;10653;47.052;15.410;2023-05-10T13:23:12;5.60;;;5.00;;
20988;SDS011;10653;47.052;15.410;2023-05-10T13:25:38;5.00;;;4.60;;
20988;SDS011;10653;47.052;15.410;2023-05-10T13:28:04;6.07;;;4.50;;
20988;SDS011;10653;47.052;15.410;2023-05-10T13:30:30;6.23;;;4.87;;
20988;SDS011;10653;47.052;15.410;2023-05-10T13:32:56;5.63;;;5.13;;
20988;SDS011;10653;47.052;15.410;2023-05-10T13:35:22;5.57;;;5.07;;
20988;SDS011;10653;47.052;15.410;2023-05-10T13:37:48;5.70;;;5.00;;
20988;SDS011;10653;47.052;15.410;2023-05-10T13:40:14;9.93;;;5.50;;
20988;SDS011;10653;47.052;15.410;2023-05-10T13:42:40;4.93;;;4.50;;
20988;SDS011;10653;47.052;15.410;2023-05-10T13:45:06;5.37;;;4.87;;
20988;SDS011;10653;47.052;15.410;2023-05-10T13:47:33;4.97;;;4.53;;
20988;SDS011;10653;47.052;15.410;2023-05-10T13:49:59;6.30;;;5.70;;
20988;SDS011;10653;47.052;15.410;2023-05-10T13:52:25;6.00;;;5.40;;
20988;SDS011;10653;47.052;15.410;2023-05-10T13:54:51;5.93;;;5.43;;
20988;SDS011;10653;47.052;15.410;2023-05-10T13:57:20;6.37;;;5.20;;
20988;SDS011;10653;47.052;15.410;2023-05-10T13:59:46;6.27;;;5.77;;
20988;SDS011;10653;47.052;15.410;2023-05-10T14:02:12;7.03;;;5.30;;
20988;SDS011;10653;47.052;15.410;2023-05-10T14:04:38;6.10;;;5.60;;
20988;SDS011;10653;47.052;15.410;2023-05-10T14:07:04;5.70;;;5.20;;
20988;SDS011;10653;47.052;15.410;2023-05-10T14:09:30;5.47;;;4.87;;
20988;SDS011;10653;47.052;15.410;2023-05-10T14:11:56;6.13;;;5.63;;
20988;SDS011;10653;47.052;15.410;2023-05-10T14:14:22;6.30;;;5.70;;
20988;SDS011;10653;47.052;15.410;2023-05-10T14:16:48;6.33;;;5.20;;
20988;SDS011;10653;47.052;15.410;2023-05-10T14:19:14;5.73;;;5.23;;
20988;SDS011;10653;47.052;15.410;2023-05-10T14:21:40;6.10;;;5.60;;
20988;SDS011;10653;47.052;15.410;2023-05-10T14:24:06;7.90;;;6.50;;
20988;SDS011;10653;47.052;15.410;2023-05-10T14:26:32;5.73;;;5.20;;
20988;SDS011;10653;47.052;15.410;2023-05-10T14:28:59;6.10;;;5.53;;
20988;SDS011;10653;47.052;15.410;2023-05-10T14:31:25;6.03;;;5.43;;
20988;SDS011;10653;47.052;15.410;2023-05-10T14:33:52;6.07;;;5.47;;
20988;SDS011;10653;47.052;15.410;2023-05-10T14:36:18;5.93;;;5.40;;
20988;SDS011;10653;47.052;15.410;2023-05-10T14:38:44;6.83;;;5.80;;
20988;SDS011;10653;47.052;15.410;2023-05-10T14:41:10;6.10;;;5.60;;
20988;SDS011;10653;47.052;15.410;2023-05-10T14:43:39;5.97;;;5.37;;
20988;SDS011;10653;47.052;15.410;2023-05-10T14:46:06;9.40;;;5.30;;
20988;SDS011;10653;47.052;15.410;2023-05-10T14:48:32;5.27;;;4.73;;
20988;SDS011;10653;47.052;15.410;2023-05-10T14:50:58;5.67;;;5.13;;
20988;SDS011;10653;47.052;15.410;2023-05-10T14:53:24;6.03;;;5.30;;
20988;SDS011;10653;47.052;15.410;2023-05-10T14:55:50;6.27;;;5.70;;
20988;SDS011;10653;47.052;15.410;2023-05-10T14:58:16;5.67;;;5.27;;
20988;SDS011;10653;47.052;15.410;2023-05-10T15:00:42;5.43;;;4.93;;
20988;SDS011;10653;47.052;15.410;2023-05-10T15:03:08;5.33;;;4.93;;